Devon, Canada
Current Conditions -  °F | °C
As of 3:00 PM on Saturday 20 Dec 2014 (Local Time) from CYEG Reporting Station
Broken Clouds Broken Clouds  
Wind Chill: 19°   Ceiling: 25000
Heat Index: 27°   Visibility: 15mi
Dew Point: 18°   Wind: 7mph
Humidity: 69%   Direction: 150°SSE
Pressure: 29.53"   Gusts: NA
Location:  53.37°N, 113.73°W
Report Text: CYEG 202200Z 15006KT 15SM FEW180 BKN250 M03/M08 A2953 RMK AC2CI5 VIRGA SW SLP039
Loading
Personal Weather Stations






























Interactive Weather Map New forecast layout! Learn more

10-Day Weather Forecast

Advertisements
Track Severe Weather on mobile